Time;durP1;ratioP1;P1;durP2;ratioP2;P2;SDS_P1;SDS_P2;PMS_P1;PMS_P2;Temp;Humidity;BMP_temperature;BMP_pressure;BME280_temperature;BME280_humidity;BME280_pressure;Samples;Min_cycle;Max_cycle;Signal;HPM_P1;HPM_P2
2021/07/14 00:02:06;;;;;;;20.00;17.17;;;;;;;24.19;87.39;99373.73;2746064;86;21077;-66
2021/07/14 00:06:08;;;;;;;20.30;18.12;;;;;;;24.14;87.88;99377.70;2742849;86;21059;-66
2021/07/14 00:10:18;;;;;;;27.70;21.57;;;;;;;24.16;88.37;99381.01;2743487;86;21005;-66
2021/07/14 00:22:48;;;;;;;19.75;17.65;;;;;;;24.30;88.43;99361.20;2743072;86;21537;-66
2021/07/14 00:26:50;;;;;;;25.37;19.12;;;;;;;24.34;87.51;99356.12;2743011;86;21072;-67
2021/07/14 00:30:55;;;;;;;19.48;17.23;;;;;;;24.29;86.88;99375.84;2689989;87;21023;-66
2021/07/14 00:34:56;;;;;;;17.90;16.00;;;;;;;24.31;86.67;99388.66;2746674;86;21106;-67
2021/07/14 00:38:58;;;;;;;25.45;21.70;;;;;;;24.21;86.33;99386.55;2743006;86;21012;-67
2021/07/14 00:43:01;;;;;;;20.35;18.25;;;;;;;24.23;86.84;99386.33;2712270;87;21086;-66
2021/07/14 00:47:05;;;;;;;19.37;17.48;;;;;;;24.23;87.02;99377.63;2746628;86;21632;-66
2021/07/14 00:51:06;;;;;;;23.22;17.60;;;;;;;24.25;86.86;99389.63;2703834;88;21027;-66
2021/07/14 00:55:10;;;;;;;21.45;19.12;;;;;;;24.28;86.84;99385.06;2746847;86;21059;-65
2021/07/14 00:59:12;;;;;;;19.40;17.05;;;;;;;24.27;87.06;99390.21;2703781;88;21063;-67
2021/07/14 01:03:16;;;;;;;19.10;17.10;;;;;;;24.32;87.33;99379.44;2746847;86;20995;-66
2021/07/14 01:07:26;;;;;;;19.67;16.77;;;;;;;24.32;87.55;99388.14;2696215;88;21055;-66
2021/07/14 01:11:33;;;;;;;21.85;17.37;;;;;;;24.05;87.48;99396.26;2742961;86;21021;-67
2021/07/14 01:15:52;;;;;;;21.25;18.87;;;;;;;23.97;88.47;99408.78;2712319;87;21137;-67
2021/07/14 01:20:18;;;;;;;24.05;21.17;;;;;;;23.95;88.32;99409.03;2746503;86;21015;-68
2021/07/14 01:24:53;;;;;;;22.15;17.60;;;;;;;23.98;88.60;99413.18;2703192;88;21158;-67
2021/07/14 01:28:57;;;;;;;20.23;18.13;;;;;;;24.01;88.57;99418.14;2746277;86;20991;-67
2021/07/14 01:33:01;;;;;;;23.92;19.85;;;;;;;24.01;88.07;99424.09;2742924;86;20973;-67
2021/07/14 01:37:06;;;;;;;26.40;20.23;;;;;;;23.88;87.53;99434.13;2712260;87;21040;-66
2021/07/14 01:41:10;;;;;;;19.30;16.07;;;;;;;23.78;88.07;99429.28;2746533;86;21070;-66
2021/07/14 01:45:12;;;;;;;24.00;16.77;;;;;;;23.68;87.59;99426.30;2703727;88;21039;-66
2021/07/14 01:49:18;;;;;;;19.85;17.50;;;;;;;23.63;87.75;99419.40;2746284;86;21054;-66
2021/07/14 01:53:21;;;;;;;22.55;18.85;;;;;;;23.71;88.17;99425.02;2703434;88;21116;-66
2021/07/14 01:57:24;;;;;;;24.30;21.62;;;;;;;23.70;88.90;99436.94;2746452;86;21134;-66
2021/07/14 02:01:26;;;;;;;24.47;19.02;;;;;;;23.79;89.62;99420.08;2676283;88;21007;-66
2021/07/14 02:05:30;;;;;;;22.85;17.87;;;;;;;23.86;89.32;99419.13;2701521;87;21561;-66
2021/07/14 02:09:35;;;;;;;21.65;17.25;;;;;;;23.90;88.87;99420.30;2663006;88;21036;-66
2021/07/14 02:13:38;;;;;;;20.50;18.40;;;;;;;23.93;89.12;99400.82;2663458;89;21059;-66
2021/07/14 02:17:54;;;;;;;18.67;16.70;;;;;;;23.97;89.29;99397.92;2663218;89;21076;-67
2021/07/14 02:21:56;;;;;;;;;;;;;;;23.99;88.98;99421.63;2665490;89;21583;-67
2021/07/14 02:26:01;;;;;;;20.72;16.37;;;;;;;23.86;88.64;99425.92;2663233;88;20116;-65
2021/07/14 02:30:09;;;;;;;18.47;14.97;;;;;;;23.78;88.87;99429.28;2663513;89;21040;-66
2021/07/14 02:34:11;;;;;;;19.05;14.28;;;;;;;23.79;89.21;99420.59;2663135;89;21091;-66
2021/07/14 02:38:39;;;;;;;15.15;12.85;;;;;;;23.82;89.09;99424.19;2663478;89;21091;-66
2021/07/14 02:42:43;;;;;;;20.68;15.48;;;;;;;23.78;88.54;99417.58;2663088;88;21071;-66
2021/07/14 02:46:49;;;;;;;24.18;12.73;;;;;;;23.81;88.71;99418.47;2646935;89;21071;-65
2021/07/14 02:50:52;;;;;;;24.05;13.78;;;;;;;23.86;88.05;99416.41;2663153;89;21059;-66
2021/07/14 02:54:57;;;;;;;16.97;13.03;;;;;;;23.86;88.03;99419.94;2663080;89;21032;-67
2021/07/14 02:59:07;;;;;;;17.30;11.78;;;;;;;23.76;87.50;99415.64;2663346;89;21517;-65
2021/07/14 03:03:08;;;;;;;20.77;12.60;;;;;;;23.73;87.82;99400.63;2661783;89;21063;-65
2021/07/14 03:07:10;;;;;;;18.55;11.75;;;;;;;23.75;87.74;99397.15;2663143;88;21558;-65
2021/07/14 03:11:14;;;;;;;19.00;11.88;;;;;;;23.66;87.21;99391.78;2663066;89;21052;-63
2021/07/14 03:15:17;;;;;;;16.30;10.88;;;;;;;23.66;87.54;99398.56;2662759;89;21122;-64
2021/07/14 03:19:20;;;;;;;14.98;9.78;;;;;;;23.64;86.80;99412.91;2663101;89;21131;-63
2021/07/14 03:23:22;;;;;;;15.25;10.50;;;;;;;23.52;86.99;99419.13;2662849;88;21095;-63
2021/07/14 03:27:26;;;;;;;14.38;10.00;;;;;;;23.45;87.30;99427.91;2662752;89;21004;-64
2021/07/14 03:31:29;;;;;;;18.82;11.33;;;;;;;23.37;87.90;99439.08;2662866;89;21008;-64
2021/07/14 03:35:32;;;;;;;16.12;11.20;;;;;;;23.20;88.47;99440.24;2662964;89;21088;-64
2021/07/14 03:39:43;;;;;;;17.40;11.12;;;;;;;23.06;89.93;99439.60;2662875;89;21008;-63
2021/07/14 03:43:46;;;;;;;14.85;10.82;;;;;;;23.11;90.48;99422.10;2662486;88;21099;-63
2021/07/14 03:47:49;;;;;;;26.42;11.65;;;;;;;23.27;91.49;99408.98;2662227;89;21083;-65
2021/07/14 03:51:51;;;;;;;17.40;10.60;;;;;;;23.51;91.27;99399.84;2662736;89;21048;-64
2021/07/14 03:55:56;;;;;;;23.75;10.18;;;;;;;23.75;90.63;99403.12;2662840;89;21592;-63
2021/07/14 03:59:58;;;;;;;20.23;11.85;;;;;;;23.90;89.67;99417.59;2663605;89;21083;-63
2021/07/14 04:04:00;;;;;;;19.75;10.75;;;;;;;23.96;88.14;99427.50;2663101;89;21047;-64
2021/07/14 04:08:04;;;;;;;21.82;11.45;;;;;;;24.01;88.78;99427.64;2662883;88;21136;-65
2021/07/14 04:12:07;;;;;;;19.30;10.80;;;;;;;24.20;88.67;99423.48;2663078;89;21065;-65
2021/07/14 04:16:10;;;;;;;15.55;9.78;;;;;;;24.33;87.93;99415.06;2663167;89;21084;-66
2021/07/14 04:20:13;;;;;;;20.10;8.63;;;;;;;24.07;86.67;99417.73;2662940;88;21071;-65
2021/07/14 04:24:15;;;;;;;14.23;8.40;;;;;;;24.03;88.11;99430.98;2663274;89;21012;-64
2021/07/14 04:28:17;;;;;;;13.50;6.83;;;;;;;24.28;88.91;99442.13;2663285;88;21067;-64
2021/07/14 04:32:19;;;;;;;13.55;6.53;;;;;;;24.56;86.63;99444.63;2663520;88;21063;-66
2021/07/14 04:36:22;;;;;;;15.60;7.87;;;;;;;24.75;85.08;99434.95;2663229;88;21067;-65
2021/07/14 04:40:23;;;;;;;21.70;7.87;;;;;;;24.90;84.65;99452.97;2663492;88;21619;-66
2021/07/14 04:44:36;;;;;;;15.70;7.17;;;;;;;25.15;83.74;99469.50;2663688;88;21016;-64
2021/07/14 04:48:34;;;;;;;12.28;7.95;;;;;;;25.30;82.19;99475.79;2662845;89;21052;-63
2021/07/14 04:52:36;;;;;;;16.70;6.80;;;;;;;25.28;81.88;99459.41;2663390;89;21079;-65
2021/07/14 04:56:38;;;;;;;14.55;7.83;;;;;;;25.02;80.93;99439.33;2663262;89;21084;-66
2021/07/14 05:00:40;;;;;;;11.93;6.25;;;;;;;24.72;82.78;99444.95;2663285;88;21052;-64
2021/07/14 05:04:41;;;;;;;10.68;6.00;;;;;;;24.52;83.87;99451.09;2663476;88;21036;-65
2021/07/14 05:08:51;;;;;;;13.25;6.75;;;;;;;24.65;84.66;99463.59;2663602;88;21549;-65
2021/07/14 05:12:53;;;;;;;15.18;7.00;;;;;;;24.75;83.76;99467.09;2663435;88;21059;-65
2021/07/14 05:16:56;;;;;;;16.27;7.30;;;;;;;24.53;83.26;99461.41;2663490;89;21605;-64
2021/07/14 05:20:58;;;;;;;16.95;6.97;;;;;;;24.29;84.17;99457.91;2663427;89;21131;-63
2021/07/14 05:25:00;;;;;;;11.28;6.80;;;;;;;24.08;85.45;99466.41;2663192;88;21091;-65
2021/07/14 05:29:02;;;;;;;10.75;5.92;;;;;;;24.08;86.59;99473.73;2663467;88;21063;-65
2021/07/14 05:33:06;;;;;;;10.05;6.72;;;;;;;24.17;86.78;99483.70;2663384;88;21112;-66
2021/07/14 05:37:08;;;;;;;21.62;8.00;;;;;;;24.24;85.98;99492.03;2663340;88;21123;-65
2021/07/14 05:41:10;;;;;;;8.30;6.10;;;;;;;24.28;86.09;99488.31;2663491;88;21044;-64
2021/07/14 05:45:15;;;;;;;13.95;6.83;;;;;;;24.24;86.20;99499.38;2663239;88;21055;-66
2021/07/14 05:49:19;;;;;;;13.15;5.75;;;;;;;24.27;86.49;99491.27;2663158;89;29768;-65
2021/07/14 05:53:21;;;;;;;10.72;5.78;;;;;;;24.44;86.91;99499.55;2663388;88;21056;-65
2021/07/14 05:57:25;;;;;;;15.80;6.78;;;;;;;24.99;86.56;99517.89;2663387;88;21091;-65
2021/07/14 06:01:26;;;;;;;19.20;7.00;;;;;;;25.53;84.52;99514.34;2663828;88;21055;-65
2021/07/14 06:05:28;;;;;;;12.00;5.92;;;;;;;25.76;81.10;99502.22;2663939;88;21028;-64
2021/07/14 06:09:30;;;;;;;11.88;6.28;;;;;;;25.83;80.71;99504.78;2663728;88;21102;-66
2021/07/14 06:13:33;;;;;;;11.05;6.05;;;;;;;26.07;82.36;99508.19;2664103;88;21087;-65
2021/07/14 06:17:36;;;;;;;12.33;5.22;;;;;;;26.50;80.44;99501.23;2663904;88;21119;-65
2021/07/14 06:21:38;;;;;;;16.12;6.92;;;;;;;26.74;78.87;99525.55;2664401;88;21020;-65
2021/07/14 06:25:40;;;;;;;15.70;5.15;;;;;;;27.12;78.30;99528.53;2664443;88;21044;-65
2021/07/14 06:29:41;;;;;;;14.07;5.37;;;;;;;27.50;75.83;99542.33;2664836;88;21051;-65
2021/07/14 06:33:43;;;;;;;14.33;4.78;;;;;;;27.63;76.08;99587.55;2664700;89;21069;-64
2021/07/14 06:37:47;;;;;;;8.78;4.78;;;;;;;27.60;74.72;99618.92;2665154;88;21043;-65
2021/07/14 06:41:50;;;;;;;11.60;5.87;;;;;;;27.48;74.73;99614.13;2665300;88;21044;-64
2021/07/14 06:45:52;;;;;;;9.23;4.80;;;;;;;27.43;75.69;99649.02;2665097;88;21080;-65
2021/07/14 06:49:54;;;;;;;12.40;5.15;;;;;;;27.51;75.31;99656.81;2665122;88;21043;-64
2021/07/14 06:53:58;;;;;;;17.27;5.42;;;;;;;27.32;75.17;99720.97;2664964;88;21140;-64
2021/07/14 06:58:00;;;;;;;13.22;5.35;;;;;;;26.92;75.25;99772.77;2665068;88;21044;-63
2021/07/14 07:02:04;;;;;;;12.45;6.25;;;;;;;26.49;76.47;99776.86;2664693;88;21119;-65
2021/07/14 07:06:06;;;;;;;11.30;4.75;;;;;;;26.12;77.86;99743.98;2664343;88;21056;-64
2021/07/14 07:10:11;;;;;;;19.95;4.53;;;;;;;25.88;78.09;99750.03;2664227;88;21099;-64
2021/07/14 07:14:20;;;;;;;6.83;4.17;;;;;;;25.64;78.58;99747.36;2664674;89;21055;-65
2021/07/14 07:18:22;;;;;;;7.40;3.12;;;;;;;25.44;79.70;99743.09;2664589;89;21103;-65
2021/07/14 07:22:24;;;;;;;13.98;2.52;;;;;;;25.14;79.08;99758.98;2663758;88;21055;-64
2021/07/14 07:26:28;;;;;;;27.00;3.80;;;;;;;24.71;79.33;99709.77;2663600;89;21069;-62
2021/07/14 07:30:31;;;;;;;8.20;2.72;;;;;;;24.22;80.89;99657.18;2663487;88;21059;-65
2021/07/14 07:34:33;;;;;;;6.58;2.02;;;;;;;23.74;83.72;99656.13;2663048;89;21593;-64
2021/07/14 07:38:37;;;;;;;4.95;2.15;;;;;;;23.37;86.43;99648.02;2663448;89;21076;-64
2021/07/14 07:42:41;;;;;;;9.23;2.58;;;;;;;23.08;88.85;99647.67;2663144;88;21673;-64
2021/07/14 07:46:43;;;;;;;10.53;3.12;;;;;;;22.93;91.21;99666.48;2663179;89;21034;-66
2021/07/14 07:50:45;;;;;;;10.00;4.37;;;;;;;22.96;93.03;99689.62;2663134;88;21011;-64
2021/07/14 07:54:47;;;;;;;18.62;5.00;;;;;;;23.01;94.95;99687.60;2662966;88;21028;-65
2021/07/14 07:58:48;;;;;;;8.73;6.20;;;;;;;23.10;96.35;99692.52;2663128;88;21028;-64
2021/07/14 08:02:50;;;;;;;16.87;8.70;;;;;;;23.18;97.31;99664.80;2662884;88;21087;-64
2021/07/14 08:06:52;;;;;;;14.98;9.48;;;;;;;23.29;97.07;99656.46;2666239;88;21005;-65
2021/07/14 08:10:56;;;;;;;11.20;8.63;;;;;;;23.41;96.99;99651.11;2691238;88;21092;-64
2021/07/14 08:15:00;;;;;;;13.58;6.75;;;;;;;23.45;96.53;99657.22;2691779;88;21549;-64
2021/07/14 08:19:07;;;;;;;6.70;5.62;;;;;;;23.58;96.09;99658.10;2692029;88;21048;-63
2021/07/14 08:23:13;;;;;;;7.58;6.12;;;;;;;23.74;95.59;99650.70;2691699;88;21600;-64
2021/07/14 08:27:16;;;;;;;10.65;5.78;;;;;;;23.93;94.86;99653.38;2692118;88;21097;-64
2021/07/14 08:31:22;;;;;;;12.03;5.90;;;;;;;24.09;94.42;99628.33;2692232;88;21086;-65
2021/07/14 08:35:26;;;;;;;9.50;4.37;;;;;;;24.22;94.08;99621.86;2691951;88;21095;-64
2021/07/14 08:39:34;;;;;;;9.43;4.65;;;;;;;24.23;91.59;99645.25;2692000;88;21056;-65
2021/07/14 08:43:44;;;;;;;9.45;4.70;;;;;;;24.26;91.04;99665.70;2692147;88;21059;-64
2021/07/14 08:47:49;;;;;;;5.17;4.42;;;;;;;24.33;91.74;99699.58;2673809;88;21601;-63
2021/07/14 08:51:53;;;;;;;7.70;5.17;;;;;;;24.30;92.42;99722.60;2692259;88;21052;-64
2021/07/14 08:55:58;;;;;;;9.00;5.07;;;;;;;24.29;93.52;99742.69;2692511;88;21052;-65
2021/07/14 09:00:01;;;;;;;8.35;5.45;;;;;;;24.34;93.91;99735.20;2692726;88;21087;-63
2021/07/14 09:04:06;;;;;;;8.35;5.45;;;;;;;24.22;94.13;99755.55;2692394;88;21032;-64
2021/07/14 09:08:08;;;;;;;6.92;4.50;;;;;;;24.14;94.82;99774.34;2730644;86;21035;-63
2021/07/14 09:12:13;;;;;;;9.85;5.90;;;;;;;24.08;94.60;99780.16;2730850;86;21051;-64
2021/07/14 09:16:39;;;;;;;9.07;5.50;;;;;;;24.09;93.53;99798.66;2730697;87;21075;-64
2021/07/14 09:20:40;;;;;;;;;;;;;;;23.95;93.87;99806.08;2732844;87;21533;-64
2021/07/14 09:24:43;;;;;;;7.90;4.92;;;;;;;23.90;94.62;99801.86;2730463;87;20124;-64
2021/07/14 09:28:44;;;;;;;10.58;6.03;;;;;;;23.85;94.61;99750.93;2731073;86;20992;-64
2021/07/14 09:33:02;;;;;;;9.30;4.97;;;;;;;23.84;94.86;99798.16;2730710;87;21110;-66
2021/07/14 09:37:05;;;;;;;12.25;5.78;;;;;;;23.83;94.98;99788.34;2730713;87;21020;-64
2021/07/14 09:41:11;;;;;;;13.40;7.05;;;;;;;23.73;95.57;99779.37;2730712;87;21008;-64
2021/07/14 09:45:12;;;;;;;13.28;5.28;;;;;;;23.78;96.42;99761.89;2730545;87;21076;-65
2021/07/14 09:49:14;;;;;;;25.05;7.53;;;;;;;23.98;96.48;99779.84;2730285;87;21026;-63
2021/07/14 09:53:19;;;;;;;11.00;5.25;;;;;;;24.14;96.38;99806.10;2730179;86;21070;-64
2021/07/14 09:57:25;;;;;;;14.70;5.22;;;;;;;24.19;95.57;99789.97;2732134;86;21007;-64
2021/07/14 10:01:30;;;;;;;;;;;;;;;24.23;94.85;99770.23;2735139;87;21082;-63
2021/07/14 10:05:32;;;;;;;11.07;4.53;;;;;;;24.44;94.44;99745.52;2730707;87;20155;-64
2021/07/14 10:09:35;;;;;;;11.12;5.03;;;;;;;24.53;93.96;99759.91;2737711;85;21067;-64
2021/07/14 10:13:37;;;;;;;4.25;3.17;;;;;;;24.69;92.19;99748.09;2796716;85;20991;-64
2021/07/14 10:17:47;;;;;;;9.23;3.33;;;;;;;24.78;90.61;99762.21;2796620;85;21106;-64
2021/07/14 10:21:50;;;;;;;6.65;3.30;;;;;;;24.77;89.42;99802.70;2796820;85;21074;-64
2021/07/14 10:25:53;;;;;;;5.37;2.80;;;;;;;24.76;89.99;99796.42;2797146;85;21042;-65
2021/07/14 10:29:56;;;;;;;15.53;7.22;;;;;;;25.01;89.41;99764.67;2797254;85;21055;-64
2021/07/14 10:33:58;;;;;;;8.53;3.12;;;;;;;25.23;87.61;99767.63;2796727;85;20999;-64
2021/07/14 10:38:04;;;;;;;9.25;3.40;;;;;;;25.48;86.12;99766.07;2797255;85;21061;-65
2021/07/14 10:42:07;;;;;;;3.67;1.87;;;;;;;25.74;85.16;99756.28;2797576;85;21579;-63
2021/07/14 10:46:09;;;;;;;7.90;2.42;;;;;;;25.98;82.54;99718.08;2797275;85;21015;-64
2021/07/14 10:50:13;;;;;;;7.17;3.30;;;;;;;26.21;82.30;99710.39;2797143;85;21027;-64
2021/07/14 10:54:17;;;;;;;5.03;2.02;;;;;;;26.54;81.96;99722.44;2797195;85;21038;-65
2021/07/14 10:58:23;;;;;;;11.15;2.30;;;;;;;26.63;79.46;99701.86;2771394;85;21047;-65
2021/07/14 11:02:43;;;;;;;6.55;2.02;;;;;;;26.73;79.50;99648.56;2797239;85;20979;-65
2021/07/14 11:07:07;;;;;;;3.75;1.47;;;;;;;26.79;78.59;99632.00;2797371;85;21090;-65
2021/07/14 11:11:12;;;;;;;4.10;2.70;;;;;;;26.83;77.41;99628.25;2784707;85;21039;-65
2021/07/14 11:15:30;;;;;;;4.15;2.80;;;;;;;26.89;77.13;99623.17;2785176;85;21066;-64
2021/07/14 11:19:52;;;;;;;5.85;2.33;;;;;;;26.97;74.88;99618.38;2784361;85;21051;-64
2021/07/14 11:23:54;;;;;;;4.75;2.15;;;;;;;27.00;75.23;99606.41;2784962;84;21051;-65
2021/07/14 11:28:08;;;;;;;10.78;4.53;;;;;;;27.07;72.81;99613.05;2785185;85;21092;-65
2021/07/14 11:32:10;;;;;;;4.97;3.85;;;;;;;27.13;74.09;99640.72;2785026;85;21509;-64
2021/07/14 11:36:15;;;;;;;8.43;3.22;;;;;;;27.04;73.61;99657.22;2785369;85;21051;-65
2021/07/14 11:40:25;;;;;;;4.65;3.25;;;;;;;26.90;74.30;99665.75;2785305;85;21019;-65
2021/07/14 11:44:38;;;;;;;8.78;2.42;;;;;;;26.74;76.25;99666.58;2785248;85;21541;-65
2021/07/14 11:48:43;;;;;;;3.37;2.27;;;;;;;26.46;77.34;99688.22;2785154;85;21083;-65
2021/07/14 11:52:48;;;;;;;6.75;2.98;;;;;;;26.19;78.95;99687.45;2784872;85;21521;-64
2021/07/14 11:56:55;;;;;;;6.17;1.60;;;;;;;25.93;80.29;99680.14;2785326;85;21027;-65
2021/07/14 12:00:57;;;;;;;3.35;1.90;;;;;;;25.68;81.37;99673.64;2784729;84;20980;-65
2021/07/14 12:05:09;;;;;;;20.43;3.22;;;;;;;25.45;81.95;99654.06;2784751;85;21000;-65
2021/07/14 12:09:19;;;;;;;4.55;1.67;;;;;;;25.38;82.21;99631.08;2789881;85;21051;-65
2021/07/14 12:13:24;;;;;;;8.43;3.17;;;;;;;25.32;83.55;99682.38;2796538;85;21055;-65
2021/07/14 12:17:28;;;;;;;4.50;2.08;;;;;;;25.28;84.89;99721.51;2796727;85;21098;-65
2021/07/14 12:21:41;;;;;;;6.42;2.55;;;;;;;25.32;85.96;99719.12;2797481;85;21071;-64
2021/07/14 12:25:44;;;;;;;7.45;3.02;;;;;;;25.38;84.47;99693.14;2737642;87;21297;-65
2021/07/14 12:29:56;;;;;;;6.90;2.52;;;;;;;25.33;84.47;99679.42;2710552;87;21091;-65
2021/07/14 12:33:59;;;;;;;7.05;2.50;;;;;;;25.37;84.82;99617.19;2741661;85;21015;-67
2021/07/14 12:38:15;;;;;;;6.95;2.72;;;;;;;25.44;84.51;99640.16;2797162;85;21038;-64
2021/07/14 12:42:21;;;;;;;5.00;1.42;;;;;;;25.42;85.42;99633.61;2797255;85;21026;-66
2021/07/14 12:46:27;;;;;;;4.70;1.98;;;;;;;25.70;85.12;99640.18;2797190;85;21062;-65
2021/07/14 12:50:33;;;;;;;7.55;2.30;;;;;;;25.87;80.94;99672.10;2797229;85;21039;-65
2021/07/14 12:54:37;;;;;;;4.35;1.95;;;;;;;26.16;79.51;99692.00;2797266;85;21050;-65
2021/07/14 12:58:39;;;;;;;7.00;2.60;;;;;;;26.25;76.67;99688.94;2797489;85;21580;-65
2021/07/14 13:02:56;;;;;;;4.15;2.05;;;;;;;26.32;76.49;99669.15;2797335;85;21019;-66
2021/07/14 13:07:03;;;;;;;3.40;2.55;;;;;;;26.34;75.88;99643.83;2797498;85;21094;-65
2021/07/14 13:11:06;;;;;;;5.85;2.87;;;;;;;26.44;77.13;99618.12;2786982;85;21059;-65
2021/07/14 13:15:11;;;;;;;5.65;2.12;;;;;;;26.55;76.28;99606.83;2785585;85;21318;-65
2021/07/14 13:19:18;;;;;;;5.58;1.47;;;;;;;26.77;77.01;99642.34;2785051;84;21067;-66
2021/07/14 13:23:29;;;;;;;6.87;2.65;;;;;;;27.15;75.67;99657.67;2784984;84;21003;-66
2021/07/14 13:27:36;;;;;;;4.50;2.27;;;;;;;27.37;72.29;99667.78;2785421;85;21019;-64
2021/07/14 13:31:34;;;;;;;3.70;2.25;;;;;;;27.43;73.72;99648.20;2784442;84;21039;-64
2021/07/14 13:35:45;;;;;;;8.28;2.22;;;;;;;27.68;70.64;99642.23;2785392;85;21023;-63
2021/07/14 13:39:47;;;;;;;3.75;2.00;;;;;;;27.82;70.33;99637.75;2785127;85;20972;-64
2021/07/14 13:43:55;;;;;;;5.92;1.80;;;;;;;28.00;68.78;99621.00;2786296;85;21047;-64
2021/07/14 13:48:03;;;;;;;4.53;2.10;;;;;;;28.13;68.71;99614.28;2785355;85;21055;-64
2021/07/14 13:52:05;;;;;;;6.40;2.62;;;;;;;28.22;69.00;99646.11;2785753;85;21106;-65
2021/07/14 13:56:10;;;;;;;8.10;2.20;;;;;;;28.39;70.41;99650.07;2785891;85;21015;-65
2021/07/14 14:00:15;;;;;;;5.42;1.98;;;;;;;28.73;69.37;99648.44;2785868;84;21051;-64
2021/07/14 14:04:17;;;;;;;4.37;2.58;;;;;;;28.95;66.85;99637.13;2786478;85;20995;-64
2021/07/14 14:08:22;;;;;;;7.33;2.58;;;;;;;29.05;65.38;99635.80;2786346;85;21011;-65
2021/07/14 14:12:43;;;;;;;;;;;;;;;29.17;63.42;99658.33;2789217;85;20980;-66
2021/07/14 14:16:47;;;;;;;10.13;2.75;;;;;;;29.05;63.75;99654.96;2786144;85;20108;-66
2021/07/14 14:20:49;;;;;;;13.80;7.95;;;;;;;29.01;64.59;99652.48;2786582;85;20991;-62
2021/07/14 14:24:52;;;;;;;5.70;2.95;;;;;;;29.09;64.22;99660.21;2786457;84;21083;-65
2021/07/14 14:28:54;;;;;;;7.70;3.12;;;;;;;29.24;64.24;99642.20;2786137;85;21074;-63
2021/07/14 14:32:58;;;;;;;7.37;2.40;;;;;;;29.77;65.23;99661.34;2786228;85;21008;-67
2021/07/14 14:37:00;;;;;;;6.37;2.58;;;;;;;29.77;65.23;99661.34;2786506;85;21533;-64
2021/07/14 14:41:02;;;;;;;9.65;2.60;;;;;;;29.64;64.53;99658.56;2823958;84;21039;-65
2021/07/14 14:45:07;;;;;;;8.90;2.87;;;;;;;29.64;64.53;99658.56;2833784;83;21044;-66
2021/07/14 14:49:09;;;;;;;7.80;3.10;;;;;;;29.54;64.27;99637.98;2780478;85;21032;-65
2021/07/14 14:53:11;;;;;;;7.80;2.47;;;;;;;29.66;64.40;99656.38;2780850;85;21026;-66
2021/07/14 14:57:13;;;;;;;4.83;3.00;;;;;;;29.56;64.85;99646.20;2780432;85;21027;-66
2021/07/14 15:01:15;;;;;;;9.80;3.85;;;;;;;29.42;65.86;99665.05;2781099;85;20999;-66
2021/07/14 15:05:22;;;;;;;4.67;2.50;;;;;;;29.42;65.86;99665.05;2780941;85;21051;-66
2021/07/14 15:09:24;;;;;;;10.45;4.33;;;;;;;29.39;65.56;99657.91;2780643;85;21035;-67
2021/07/14 15:13:26;;;;;;;10.28;3.05;;;;;;;29.45;65.49;99659.03;2780881;85;21067;-66
2021/07/14 15:17:29;;;;;;;6.20;3.30;;;;;;;29.72;67.30;99673.66;2780495;85;21087;-66
2021/07/14 15:21:33;;;;;;;4.05;2.67;;;;;;;29.99;65.78;99657.58;2780925;85;20996;-66
2021/07/14 15:28:39;;;;;;;9.50;3.67;;;;;;;30.12;66.96;99656.27;2780825;85;21023;-66
2021/07/14 15:29:38;;;;;;;;;;;;;;;29.96;64.93;99650.71;2780068;85;21079;-65
2021/07/14 15:33:42;;;;;;;5.58;2.42;;;;;;;29.42;66.89;99645.07;2780796;85;20129;-66
2021/07/14 15:37:44;;;;;;;8.20;4.03;;;;;;;29.42;66.89;99645.07;2781156;85;21016;-66
2021/07/14 15:41:47;;;;;;;5.65;3.27;;;;;;;29.17;64.90;99648.75;2780920;85;21331;-67
2021/07/14 15:45:49;;;;;;;13.90;4.03;;;;;;;29.11;65.17;99651.19;2780787;85;20976;-67
2021/07/14 15:49:51;;;;;;;7.20;2.83;;;;;;;28.98;65.61;99650.28;2780981;85;21020;-67
2021/07/14 15:53:53;;;;;;;6.72;3.25;;;;;;;28.88;64.98;99654.58;2783476;85;21050;-67
2021/07/14 15:57:54;;;;;;;8.03;3.58;;;;;;;28.98;63.93;99641.50;2780453;85;21019;-66
2021/07/14 16:01:57;;;;;;;8.73;3.55;;;;;;;29.00;63.71;99631.67;2780655;85;21012;-66
2021/07/14 16:05:59;;;;;;;6.67;2.95;;;;;;;29.06;63.71;99626.50;2780778;85;21019;-68
2021/07/14 16:10:00;;;;;;;7.72;2.62;;;;;;;29.17;62.07;99626.00;2784157;85;21023;-66
2021/07/14 16:14:11;;;;;;;9.95;3.20;;;;;;;29.24;61.85;99611.55;2789659;85;21873;-61
2021/07/14 16:18:13;;;;;;;8.30;3.50;;;;;;;29.34;61.58;99588.86;2776722;85;21063;-64
2021/07/14 16:22:15;;;;;;;5.30;3.05;;;;;;;29.70;60.85;99589.00;2799062;85;21030;-62
2021/07/14 16:26:19;;;;;;;6.60;3.15;;;;;;;29.70;60.85;99589.00;2799739;83;21030;-63
2021/07/14 16:30:21;;;;;;;8.07;3.80;;;;;;;29.73;61.73;99591.19;2800105;85;20995;-63
2021/07/14 16:34:24;;;;;;;6.53;3.08;;;;;;;29.73;61.26;99576.13;2799769;85;20996;-63
2021/07/14 16:38:26;;;;;;;5.65;2.90;;;;;;;29.72;61.61;99573.64;2799730;85;21062;-63
2021/07/14 16:42:28;;;;;;;12.28;4.67;;;;;;;29.81;61.26;99587.09;2799623;85;21039;-64
2021/07/14 16:46:40;;;;;;;14.38;3.33;;;;;;;29.87;60.49;99579.69;2799550;85;21031;-65
2021/07/14 16:50:42;;;;;;;12.23;3.08;;;;;;;29.84;60.19;99589.83;2799690;84;21039;-63
2021/07/14 16:54:49;;;;;;;7.85;3.72;;;;;;;29.74;60.37;99592.84;2799541;85;21121;-63
2021/07/14 16:58:52;;;;;;;6.12;3.22;;;;;;;29.74;60.85;99583.25;2799505;85;21508;-62
2021/07/14 17:02:54;;;;;;;9.23;3.10;;;;;;;29.61;59.93;99561.83;2799197;85;21074;-63
2021/07/14 17:07:06;;;;;;;10.82;3.55;;;;;;;29.65;60.24;99572.52;2799248;85;21067;-65
2021/07/14 17:11:07;;;;;;;6.80;3.62;;;;;;;29.61;60.40;99579.64;2792224;85;21036;-63
2021/07/14 17:15:11;;;;;;;9.33;3.10;;;;;;;29.49;59.92;99569.77;2787173;85;20984;-64
2021/07/14 17:19:12;;;;;;;12.23;4.78;;;;;;;29.46;60.19;99585.91;2786160;85;21023;-63
2021/07/14 17:23:15;;;;;;;12.47;3.90;;;;;;;29.40;60.37;99597.36;2786828;85;21040;-64
2021/07/14 17:27:24;;;;;;;8.05;3.67;;;;;;;29.00;61.13;99585.98;2786681;85;20984;-63
2021/07/14 17:31:27;;;;;;;8.33;3.40;;;;;;;29.00;61.13;99585.98;2786657;84;21098;-63
2021/07/14 17:35:29;;;;;;;8.05;3.45;;;;;;;28.98;62.67;99603.19;2786837;85;21922;-63
2021/07/14 17:39:30;;;;;;;6.58;3.62;;;;;;;28.83;63.25;99601.75;2786759;85;21075;-64
2021/07/14 17:43:33;;;;;;;7.03;3.55;;;;;;;28.63;64.19;99594.47;2787040;85;21027;-63
2021/07/14 17:47:35;;;;;;;6.75;2.92;;;;;;;28.45;64.69;99588.88;2787281;85;21020;-63
2021/07/14 17:51:37;;;;;;;8.23;2.52;;;;;;;28.33;65.79;99593.70;2786934;85;21016;-62
2021/07/14 17:55:44;;;;;;;6.92;3.52;;;;;;;28.17;66.60;99572.25;2787459;85;21008;-62
2021/07/14 17:59:46;;;;;;;8.58;3.35;;;;;;;28.03;67.36;99563.64;2786910;85;21043;-62
2021/07/14 18:03:48;;;;;;;9.83;3.20;;;;;;;27.89;67.81;99551.75;2786941;85;21023;-63
2021/07/14 18:07:50;;;;;;;4.62;3.30;;;;;;;27.75;67.83;99539.06;2786691;85;21086;-64
2021/07/14 18:11:52;;;;;;;5.90;3.40;;;;;;;27.62;67.42;99531.27;2794770;85;21026;-62
2021/07/14 18:16:00;;;;;;;11.28;3.92;;;;;;;27.45;67.59;99543.09;2798087;85;21098;-64
2021/07/14 18:20:03;;;;;;;8.18;3.60;;;;;;;27.28;68.10;99534.98;2797151;84;21058;-63
2021/07/14 18:24:06;;;;;;;8.90;4.35;;;;;;;27.06;70.01;99522.70;2797537;85;21051;-64
2021/07/14 18:28:12;;;;;;;10.78;4.35;;;;;;;26.77;71.57;99502.41;2797699;85;21023;-64
2021/07/14 18:32:14;;;;;;;12.95;3.72;;;;;;;26.61;72.83;99506.29;2797579;85;20995;-64
2021/07/14 18:36:18;;;;;;;6.58;3.75;;;;;;;26.49;73.30;99530.09;2797126;85;21035;-65
2021/07/14 18:40:20;;;;;;;6.83;2.90;;;;;;;26.37;74.26;99548.76;2796648;85;21066;-66
2021/07/14 18:44:22;;;;;;;5.17;3.17;;;;;;;26.24;75.50;99581.79;2796804;85;21054;-64
2021/07/14 18:48:24;;;;;;;10.13;3.67;;;;;;;26.05;76.43;99590.72;2796535;85;21011;-63
2021/07/14 18:52:27;;;;;;;7.12;2.98;;;;;;;25.89;77.16;99584.15;2796651;85;21019;-64
2021/07/14 18:56:29;;;;;;;5.03;2.65;;;;;;;25.79;77.90;99583.42;2796282;85;21062;-64
2021/07/14 19:00:35;;;;;;;7.15;3.20;;;;;;;25.70;78.47;99581.63;2796358;85;21098;-64
2021/07/14 19:04:36;;;;;;;7.00;3.27;;;;;;;25.60;78.97;99571.92;2796554;85;21536;-64
2021/07/14 19:08:38;;;;;;;10.08;2.85;;;;;;;25.57;79.33;99586.03;2796244;85;21062;-63
2021/07/14 19:12:44;;;;;;;10.35;3.25;;;;;;;25.50;79.54;99586.97;2794697;85;21095;-65